Huvudsida
METAR-TAF:

METAR-TAF

Flygplatser :

Savoonga, Alaska, USA

latitud: 63-41N, longitud: 170-30W, höjd: 16 m

Aktuellt väderrapport

Denna rapport gjordes för 33 minuter sedan, klockan 17:56 UTC
Vind 5 kt varierande vindriktning
Temperatur 4°C
Fuktighet 81%
Tryck 1025 hPa
Sikt: 16.1 km
Få moln på en höjd av 2400 ft
Spridda moln på en höjd av 4000 ft

METAR: PASA 141756Z AUTO VRB05KT 10SM FEW024 SCT040 04/01 A3026 RMK AO2 SLP245 T00390011 10044 20017 51004

Tid: 10:29 (18:29 UTC)


TAF: saknas

Aktuella väderrapporter och prognoser från 4000 flygplatser (METAR- och TAF-rapporter).

De tillgängliga stationerna syns som gula och röda prickar på kartan.

För musen över prickarna för att se namnen på stationerna.

Klicka sedan för att få väderrapporter och prognoser.

För att ändra kartan: Klicka på de gröna knapparna med ett svart kors på för att zooma in; den gröna knappen med ett streck på för att zooma ut; eller på de gröna pilarna för angränsande kartor.


METAR-TAF: